Time;durP1;ratioP1;P1;durP2;ratioP2;P2;SDS_P1;SDS_P2;PMS_P1;PMS_P2;Temp;Humidity;BMP_temperature;BMP_pressure;BME280_temperature;BME280_humidity;BME280_pressure;Samples;Min_cycle;Max_cycle;Signal;HPM_P1;HPM_P2
2023/10/11 00:00:40;;;;;;;1.05;1.05;;;19.30;99.90;;;;;;5085823;28;20103;-80
2023/10/11 00:05:53;;;;;;;0.82;0.82;;;19.20;99.90;;;;;;5087625;28;20035;-79
2023/10/11 00:08:19;;;;;;;0.57;0.57;;;19.20;99.90;;;;;;5086421;28;20034;-80
2023/10/11 00:10:53;;;;;;;1.10;1.10;;;19.10;99.90;;;;;;5062317;28;20036;-79
2023/10/11 00:13:23;;;;;;;1.50;1.40;;;19.10;99.90;;;;;;5088498;28;20027;-79
2023/10/11 00:15:50;;;;;;;0.90;0.90;;;19.10;99.90;;;;;;5084923;28;20107;-79
2023/10/11 00:18:19;;;;;;;1.00;0.98;;;18.90;99.90;;;;;;5087112;28;20420;-79
2023/10/11 00:20:50;;;;;;;0.98;0.98;;;18.90;99.90;;;;;;5088550;28;20021;-79
2023/10/11 00:23:17;;;;;;;2.25;1.13;;;18.90;99.90;;;;;;5080593;28;20051;-79
2023/10/11 00:25:44;;;;;;;1.27;1.13;;;18.90;99.90;;;;;;5086202;28;20101;-80
2023/10/11 00:28:10;;;;;;;1.10;1.00;;;18.80;99.90;;;;;;5062715;28;20064;-80
2023/10/11 00:30:38;;;;;;;0.50;0.50;;;18.80;99.90;;;;;;5071259;28;20432;-79
2023/10/11 00:33:07;;;;;;;1.27;1.17;;;18.80;99.90;;;;;;5090383;28;20031;-79
2023/10/11 00:35:47;;;;;;;0.82;0.82;;;18.80;99.90;;;;;;5086529;28;20593;-79
2023/10/11 00:38:18;;;;;;;1.05;1.05;;;18.80;99.90;;;;;;5057623;28;20555;-80
2023/10/11 00:40:48;;;;;;;0.45;0.45;;;18.70;99.90;;;;;;5082196;28;20508;-79
2023/10/11 00:43:21;;;;;;;0.98;0.98;;;18.70;99.90;;;;;;5086644;28;20111;-81
2023/10/11 00:45:48;;;;;;;1.33;1.02;;;18.70;99.90;;;;;;5088411;28;20020;-80
2023/10/11 00:48:19;;;;;;;0.73;0.73;;;18.80;99.90;;;;;;5069374;28;20031;-80
2023/10/11 00:50:49;;;;;;;3.55;1.27;;;18.80;99.90;;;;;;5081758;28;20020;-80
2023/10/11 00:53:15;;;;;;;1.27;1.13;;;18.80;99.90;;;;;;5085425;28;20475;-81
2023/10/11 00:55:41;;;;;;;0.82;0.82;;;18.80;99.90;;;;;;5084231;28;20059;-80
2023/10/11 00:58:09;;;;;;;1.63;0.77;;;18.80;99.90;;;;;;5071023;28;20043;-81
2023/10/11 01:00:36;;;;;;;0.88;0.88;;;18.80;99.90;;;;;;5070931;28;20020;-80
2023/10/11 01:03:06;;;;;;;0.50;0.50;;;18.90;99.90;;;;;;5085404;28;20016;-81
2023/10/11 01:05:33;;;;;;;1.40;1.05;;;18.90;99.90;;;;;;5071424;28;20038;-81
2023/10/11 01:07:58;;;;;;;2.03;1.13;;;18.80;99.90;;;;;;5085922;28;20024;-81
2023/10/11 01:10:24;;;;;;;0.70;0.70;;;18.80;99.90;;;;;;5078022;28;20387;-80
2023/10/11 01:12:50;;;;;;;0.50;0.50;;;18.80;99.90;;;;;;5088136;28;20037;-80
2023/10/11 01:15:19;;;;;;;2.47;1.75;;;18.80;99.90;;;;;;5067985;28;20024;-81
2023/10/11 01:17:45;;;;;;;0.85;0.85;;;18.90;99.90;;;;;;5074276;28;20484;-81
2023/10/11 01:20:14;;;;;;;1.98;1.80;;;18.90;99.90;;;;;;5075237;28;20042;-81
2023/10/11 01:22:46;;;;;;;0.77;0.77;;;18.90;99.90;;;;;;5085221;28;20028;-81
2023/10/11 01:25:18;;;;;;;4.18;1.48;;;18.90;99.90;;;;;;5082332;28;20495;-81
2023/10/11 01:27:45;;;;;;;0.93;0.93;;;18.90;99.90;;;;;;5081606;28;20020;-81
2023/10/11 01:30:11;;;;;;;3.80;1.13;;;18.80;99.90;;;;;;5068852;28;20035;-81
2023/10/11 01:32:42;;;;;;;0.73;0.73;;;18.70;99.90;;;;;;5083362;28;20263;-81
2023/10/11 01:35:21;;;;;;;0.40;0.40;;;18.80;99.90;;;;;;5054177;28;20452;-80
2023/10/11 01:37:48;;;;;;;2.80;0.68;;;18.80;99.90;;;;;;5080788;28;20036;-81
2023/10/11 01:40:20;;;;;;;1.15;1.15;;;18.80;99.90;;;;;;5080919;28;20533;-81
2023/10/11 01:42:53;;;;;;;0.60;0.60;;;18.80;99.90;;;;;;5084131;28;20120;-80
2023/10/11 01:45:19;;;;;;;1.15;1.15;;;18.70;99.90;;;;;;5086082;28;20031;-80
2023/10/11 01:47:50;;;;;;;0.68;0.68;;;18.80;99.90;;;;;;5079798;28;20027;-80
2023/10/11 01:50:17;;;;;;;0.90;0.90;;;18.80;99.90;;;;;;5084079;28;20025;-81
2023/10/11 01:52:43;;;;;;;0.63;0.63;;;18.70;99.90;;;;;;5076738;28;20471;-81
2023/10/11 01:55:16;;;;;;;0.55;0.52;;;18.70;99.90;;;;;;5062804;28;20129;-80
2023/10/11 01:57:45;;;;;;;;;;;18.60;99.90;;;;;;5072956;28;20044;-81
2023/10/11 02:00:16;;;;;;;0.80;0.80;;;18.60;99.90;;;;;;5084669;28;19911;-80
2023/10/11 02:02:55;;;;;;;1.10;1.10;;;18.60;99.90;;;;;;5089731;28;20028;-81
2023/10/11 02:05:22;;;;;;;0.80;0.80;;;18.60;99.90;;;;;;5074341;28;20499;-81
2023/10/11 02:07:48;;;;;;;0.80;0.80;;;18.50;99.90;;;;;;5085268;28;20434;-81
2023/10/11 02:10:13;;;;;;;1.30;1.00;;;18.50;99.90;;;;;;5084755;28;20015;-81
2023/10/11 02:12:44;;;;;;;1.00;0.77;;;18.50;99.90;;;;;;5084605;28;20095;-81
2023/10/11 02:15:11;;;;;;;1.10;1.00;;;18.50;99.90;;;;;;5078626;28;20055;-80
2023/10/11 02:17:47;;;;;;;1.05;1.00;;;18.50;99.90;;;;;;5085666;28;20515;-81
2023/10/11 02:20:20;;;;;;;0.65;0.65;;;18.40;99.90;;;;;;5087303;28;20459;-82
2023/10/11 02:22:50;;;;;;;1.63;0.98;;;18.40;99.90;;;;;;5089668;28;20023;-80
2023/10/11 02:25:16;;;;;;;2.83;0.80;;;18.40;99.90;;;;;;5089865;28;20066;-81
2023/10/11 02:27:42;;;;;;;4.47;1.30;;;18.40;99.90;;;;;;5086925;28;20022;-81
2023/10/11 02:30:13;;;;;;;1.52;1.42;;;18.40;99.90;;;;;;5081949;28;20019;-81
2023/10/11 02:32:42;;;;;;;0.90;0.90;;;18.30;99.90;;;;;;5085926;28;20475;-81
2023/10/11 02:35:18;;;;;;;1.13;1.13;;;18.20;99.90;;;;;;5054723;28;20821;-80
2023/10/11 02:37:45;;;;;;;1.13;1.05;;;18.20;99.90;;;;;;5088477;28;20063;-81
2023/10/11 02:40:16;;;;;;;1.15;1.05;;;18.20;99.90;;;;;;5087069;28;20032;-81
2023/10/11 02:42:44;;;;;;;0.85;0.80;;;18.20;99.90;;;;;;5088760;28;20485;-80
2023/10/11 02:45:13;;;;;;;0.80;0.80;;;18.20;99.90;;;;;;5075043;28;20050;-80
2023/10/11 02:47:41;;;;;;;2.83;0.50;;;18.30;99.90;;;;;;5093431;28;20028;-81
2023/10/11 02:50:08;;;;;;;1.25;1.20;;;18.40;99.90;;;;;;5073500;28;20024;-81
2023/10/11 02:52:37;;;;;;;1.20;1.20;;;18.40;99.90;;;;;;5072736;28;20036;-81
2023/10/11 02:57:45;;;;;;;0.65;0.65;;;18.30;99.90;;;;;;5085004;28;20041;-80
2023/10/11 03:00:26;;;;;;;0.77;0.77;;;18.20;99.90;;;;;;5087335;28;20028;-81
2023/10/11 03:02:56;;;;;;;1.13;1.13;;;18.20;99.90;;;;;;5088937;28;20027;-81
2023/10/11 03:05:28;;;;;;;0.73;0.73;;;18.20;99.90;;;;;;5063327;28;20028;-81
2023/10/11 03:08:21;;;;;;;0.85;0.85;;;18.30;99.90;;;;;;5085732;28;20077;-81
2023/10/11 03:10:57;;;;;;;0.70;0.70;;;18.30;99.90;;;;;;5091353;28;20034;-80
2023/10/11 03:13:29;;;;;;;0.52;0.52;;;18.30;99.90;;;;;;5086218;28;20120;-80
2023/10/11 03:15:59;;;;;;;0.70;0.70;;;18.30;99.90;;;;;;5084419;28;20514;-81
2023/10/11 03:18:31;;;;;;;1.17;1.10;;;18.20;99.90;;;;;;5068463;28;20354;-80
2023/10/11 03:21:09;;;;;;;0.70;0.43;;;18.20;99.90;;;;;;5089283;28;20302;-80
2023/10/11 03:23:45;;;;;;;0.95;0.95;;;18.20;99.90;;;;;;5074058;28;20123;-81
2023/10/11 03:26:31;;;;;;;1.13;1.02;;;18.20;99.90;;;;;;5084804;28;20016;-81
2023/10/11 03:29:03;;;;;;;1.15;1.15;;;18.10;99.90;;;;;;5070273;28;20122;-81
2023/10/11 03:31:31;;;;;;;0.77;0.77;;;18.00;99.90;;;;;;5089038;28;20047;-80
2023/10/11 03:34:06;;;;;;;0.85;0.85;;;18.00;99.90;;;;;;5089779;28;20040;-81
2023/10/11 03:36:35;;;;;;;0.43;0.43;;;18.00;99.90;;;;;;5095076;28;20553;-80
2023/10/11 03:39:09;;;;;;;1.77;0.80;;;17.90;99.90;;;;;;5085502;28;20036;-81
2023/10/11 03:41:45;;;;;;;0.70;0.70;;;17.90;99.90;;;;;;5090650;28;20020;-81
2023/10/11 03:44:20;;;;;;;0.50;0.50;;;17.90;99.90;;;;;;5070228;28;20467;-80
2023/10/11 03:46:48;;;;;;;0.88;0.88;;;17.80;99.90;;;;;;5070367;28;20036;-80
2023/10/11 03:51:43;;;;;;;1.17;1.08;;;17.80;99.90;;;;;;5088322;28;20159;-80
2023/10/11 03:54:19;;;;;;;0.73;0.73;;;17.80;99.90;;;;;;5088580;28;20102;-81
2023/10/11 03:56:45;;;;;;;0.82;0.82;;;17.70;99.90;;;;;;5073561;28;20030;-80
2023/10/11 03:59:12;;;;;;;0.47;0.47;;;17.70;99.90;;;;;;5091546;28;20040;-81
2023/10/11 04:01:38;;;;;;;1.60;0.90;;;17.70;99.90;;;;;;5068745;28;20013;-80
2023/10/11 04:04:07;;;;;;;0.70;0.70;;;17.70;99.90;;;;;;5092162;28;20122;-80
2023/10/11 04:06:34;;;;;;;0.77;0.77;;;17.70;99.90;;;;;;5081987;28;20039;-80
2023/10/11 04:09:04;;;;;;;0.85;0.85;;;17.70;99.90;;;;;;5071404;28;20484;-80
2023/10/11 04:11:55;;;;;;;1.08;0.65;;;17.60;99.90;;;;;;5071341;28;20024;-80
2023/10/11 04:14:39;;;;;;;1.02;0.95;;;17.50;99.90;;;;;;5086163;28;20024;-80
2023/10/11 04:17:07;;;;;;;1.13;0.80;;;17.50;99.90;;;;;;5066967;28;20085;-80
2023/10/11 04:19:32;;;;;;;0.95;0.95;;;17.40;99.90;;;;;;5092396;28;20036;-79
2023/10/11 04:22:12;;;;;;;0.65;0.65;;;17.40;99.90;;;;;;5088049;28;20020;-80
2023/10/11 04:24:38;;;;;;;0.82;0.82;;;17.30;99.90;;;;;;5087615;28;20563;-80
2023/10/11 04:29:51;;;;;;;0.40;0.40;;;17.30;99.90;;;;;;5090018;28;20042;-80
2023/10/11 04:35:36;;;;;;;0.70;0.70;;;17.20;99.90;;;;;;5068085;28;20129;-80
2023/10/11 04:38:04;;;;;;;1.15;1.00;;;17.20;99.90;;;;;;5083559;28;20043;-80
2023/10/11 04:40:42;;;;;;;0.70;0.70;;;17.20;99.90;;;;;;5090916;28;20016;-80
2023/10/11 04:43:20;;;;;;;0.77;0.77;;;17.20;99.90;;;;;;5082126;28;20028;-80
2023/10/11 04:45:47;;;;;;;0.55;0.55;;;17.00;99.90;;;;;;5087750;28;20016;-80
2023/10/11 04:48:29;;;;;;;1.17;1.17;;;16.90;99.90;;;;;;5078150;28;20019;-81
2023/10/11 04:51:04;;;;;;;2.17;1.33;;;16.90;99.90;;;;;;5089663;28;20045;-80
2023/10/11 04:54:13;;;;;;;1.75;1.40;;;16.90;99.90;;;;;;5086392;28;20079;-80
2023/10/11 04:59:11;;;;;;;1.33;1.23;;;16.90;99.90;;;;;;5090936;28;20119;-80
2023/10/11 05:04:26;;;;;;;0.82;0.82;;;16.80;99.90;;;;;;5085862;28;20023;-80
2023/10/11 05:06:53;;;;;;;0.77;0.77;;;16.70;99.90;;;;;;5084736;28;21019;-80
2023/10/11 05:09:29;;;;;;;0.65;0.65;;;16.80;99.90;;;;;;5082584;28;20101;-80
2023/10/11 05:12:08;;;;;;;0.80;0.80;;;16.90;99.90;;;;;;5080680;28;20028;-80
2023/10/11 05:14:40;;;;;;;0.88;0.82;;;16.80;99.90;;;;;;5072147;28;20735;-80
2023/10/11 05:19:55;;;;;;;4.03;1.23;;;16.80;99.90;;;;;;5086882;28;20043;-80
2023/10/11 05:32:50;;;;;;;0.77;0.77;;;16.80;99.90;;;;;;5081986;28;20020;-80
2023/10/11 05:35:24;;;;;;;0.52;0.52;;;16.80;99.90;;;;;;5066900;28;20028;-80
2023/10/11 05:51:39;;;;;;;0.93;0.93;;;16.80;99.90;;;;;;5086568;28;20463;-80
2023/10/11 05:54:07;;;;;;;0.60;0.60;;;16.70;99.90;;;;;;5070772;28;20028;-80
2023/10/11 05:56:33;;;;;;;0.95;0.95;;;16.70;99.90;;;;;;5073157;28;20032;-80
2023/10/11 05:59:03;;;;;;;1.20;0.70;;;16.80;99.90;;;;;;5085505;28;20032;-81
2023/10/11 06:01:30;;;;;;;0.80;0.80;;;16.80;99.90;;;;;;5084474;28;20035;-81
2023/10/11 06:03:56;;;;;;;0.80;0.80;;;16.70;99.90;;;;;;5071885;28;20110;-81
2023/10/11 06:06:38;;;;;;;1.02;0.93;;;16.70;99.90;;;;;;5064250;28;20562;-81
2023/10/11 06:09:05;;;;;;;0.80;0.80;;;16.80;99.90;;;;;;5068028;28;20024;-80
2023/10/11 06:11:40;;;;;;;0.80;0.65;;;16.80;99.90;;;;;;5071000;28;20112;-81
2023/10/11 06:14:07;;;;;;;0.88;0.88;;;16.80;99.90;;;;;;5069099;28;20024;-80
2023/10/11 06:16:38;;;;;;;1.05;1.05;;;16.80;99.90;;;;;;5070469;28;20027;-80
2023/10/11 06:19:19;;;;;;;0.73;0.73;;;16.80;99.90;;;;;;5083351;28;20024;-80
2023/10/11 06:21:56;;;;;;;0.70;0.70;;;16.70;99.90;;;;;;5087013;28;20024;-81
2023/10/11 06:24:33;;;;;;;0.60;0.60;;;16.70;99.90;;;;;;5069136;28;20357;-81
2023/10/11 06:29:45;;;;;;;0.90;0.90;;;16.70;99.90;;;;;;5095512;28;20108;-80
2023/10/11 06:32:14;;;;;;;0.50;0.50;;;16.70;99.90;;;;;;5084993;28;20035;-82
2023/10/11 06:34:45;;;;;;;0.75;0.75;;;16.80;99.90;;;;;;5092144;28;20522;-81
2023/10/11 06:37:14;;;;;;;0.82;0.82;;;16.80;99.90;;;;;;5070176;28;20099;-81
2023/10/11 06:42:13;;;;;;;0.60;0.60;;;16.90;99.90;;;;;;5087782;28;20062;-81
2023/10/11 06:44:43;;;;;;;1.08;1.08;;;16.90;99.90;;;;;;5087186;28;20070;-81
2023/10/11 06:47:11;;;;;;;1.00;1.00;;;17.00;99.90;;;;;;5066039;28;20472;-81
2023/10/11 06:49:40;;;;;;;1.02;1.02;;;17.00;99.90;;;;;;5070710;28;20027;-81
2023/10/11 06:52:18;;;;;;;1.27;0.90;;;17.00;99.90;;;;;;5066587;28;20264;-80
2023/10/11 06:54:48;;;;;;;0.85;0.85;;;17.00;99.90;;;;;;5087088;28;20114;-83
2023/10/11 06:57:19;;;;;;;0.40;0.40;;;17.10;99.90;;;;;;5104661;28;20079;-81
2023/10/11 06:59:57;;;;;;;1.05;1.05;;;17.20;99.90;;;;;;5099508;28;20248;-81
2023/10/11 07:02:32;;;;;;;0.90;0.50;;;17.30;99.90;;;;;;5085531;28;20611;-82
2023/10/11 07:05:08;;;;;;;1.73;1.58;;;17.30;99.90;;;;;;5066185;28;20035;-81
2023/10/11 07:07:39;;;;;;;1.13;1.13;;;17.20;99.90;;;;;;5086441;28;20081;-81
2023/10/11 07:10:27;;;;;;;1.48;1.20;;;17.30;99.90;;;;;;5085952;28;20028;-81
2023/10/11 07:13:03;;;;;;;0.55;0.55;;;17.50;99.90;;;;;;5089531;28;20592;-82
2023/10/11 07:15:43;;;;;;;0.82;0.82;;;17.40;99.90;;;;;;5084179;28;20500;-81
2023/10/11 07:18:21;;;;;;;1.60;1.15;;;17.50;99.90;;;;;;5084217;28;20107;-81
2023/10/11 07:20:55;;;;;;;0.45;0.45;;;17.60;99.90;;;;;;5070219;28;20051;-81
2023/10/11 07:23:20;;;;;;;0.88;0.88;;;17.60;99.90;;;;;;5084493;28;20055;-81
2023/10/11 07:26:22;;;;;;;1.00;0.98;;;17.70;99.90;;;;;;5088070;28;20078;-81
2023/10/11 07:28:50;;;;;;;1.15;1.15;;;17.80;99.90;;;;;;5086736;28;20032;-81
2023/10/11 07:31:21;;;;;;;0.65;0.65;;;17.80;99.90;;;;;;5085233;28;20020;-82
2023/10/11 07:33:55;;;;;;;0.57;0.57;;;17.90;99.90;;;;;;5079405;28;20024;-80
2023/10/11 07:36:22;;;;;;;3.17;1.13;;;17.90;99.90;;;;;;5070924;28;20029;-81
2023/10/11 07:39:00;;;;;;;0.70;0.70;;;18.00;99.90;;;;;;5054359;28;20620;-81
2023/10/11 07:41:29;;;;;;;0.63;0.63;;;18.20;99.90;;;;;;5087674;28;20036;-82
2023/10/11 07:43:56;;;;;;;0.90;0.90;;;18.10;99.90;;;;;;5069433;28;20055;-82
2023/10/11 07:46:22;;;;;;;1.50;1.40;;;18.20;99.90;;;;;;5073682;28;20499;-81
2023/10/11 07:48:48;;;;;;;1.00;1.00;;;18.30;99.90;;;;;;5071048;28;20373;-80
2023/10/11 07:51:16;;;;;;;0.68;0.68;;;18.40;99.90;;;;;;5055764;28;20027;-79
2023/10/11 07:53:43;;;;;;;0.70;0.70;;;18.50;99.90;;;;;;5064656;28;20036;-79
2023/10/11 07:56:10;;;;;;;1.05;1.05;;;18.60;99.90;;;;;;5082551;28;20028;-79
2023/10/11 07:58:45;;;;;;;0.77;0.77;;;18.60;99.90;;;;;;5090692;28;20093;-82
2023/10/11 08:03:56;;;;;;;3.25;1.58;;;18.60;99.90;;;;;;5089344;28;20077;-82
2023/10/11 08:06:25;;;;;;;0.82;0.82;;;18.70;99.90;;;;;;5069688;28;20058;-80
2023/10/11 08:09:03;;;;;;;1.90;1.80;;;18.70;99.90;;;;;;5068851;28;20281;-80
2023/10/11 08:11:36;;;;;;;1.20;1.08;;;18.90;99.90;;;;;;5087758;28;20024;-82
2023/10/11 08:14:13;;;;;;;1.40;1.30;;;19.00;99.90;;;;;;5091804;28;20332;-80
2023/10/11 08:16:40;;;;;;;1.02;1.02;;;19.00;99.90;;;;;;5069841;28;20020;-81
2023/10/11 08:19:06;;;;;;;1.85;1.42;;;19.10;99.90;;;;;;5086562;28;20508;-80
2023/10/11 08:21:34;;;;;;;1.08;1.08;;;19.10;99.90;;;;;;5077752;28;20031;-82
2023/10/11 08:24:00;;;;;;;1.00;1.00;;;19.00;99.90;;;;;;5070064;28;20127;-82
2023/10/11 08:26:26;;;;;;;0.98;0.98;;;19.10;99.90;;;;;;5083283;28;20095;-81
2023/10/11 08:28:52;;;;;;;1.45;1.45;;;19.10;99.90;;;;;;5066742;28;20058;-82
2023/10/11 08:31:28;;;;;;;0.68;0.68;;;19.30;99.90;;;;;;5085230;28;20052;-82
2023/10/11 08:33:56;;;;;;;3.15;2.05;;;19.50;99.90;;;;;;5055286;28;20160;-82
2023/10/11 08:36:22;;;;;;;0.82;0.82;;;19.60;99.90;;;;;;5066632;28;20039;-81
2023/10/11 08:38:48;;;;;;;1.55;1.45;;;19.50;99.90;;;;;;5082884;28;20144;-81
2023/10/11 08:41:18;;;;;;;1.33;1.23;;;19.60;99.90;;;;;;5080893;28;20042;-82
2023/10/11 08:43:46;;;;;;;3.10;1.77;;;19.70;99.90;;;;;;5083733;28;20027;-82
2023/10/11 08:46:12;;;;;;;2.60;1.15;;;19.60;99.90;;;;;;5082052;28;20494;-81
2023/10/11 08:48:38;;;;;;;1.08;1.08;;;19.70;99.90;;;;;;5067074;28;20019;-82
2023/10/11 08:51:10;;;;;;;1.35;1.30;;;19.70;99.90;;;;;;5084276;28;20062;-82
2023/10/11 08:53:44;;;;;;;1.65;1.55;;;19.90;99.90;;;;;;5087018;28;20024;-82
2023/10/11 08:56:14;;;;;;;3.75;1.40;;;20.10;99.90;;;;;;5064707;28;20020;-82
2023/10/11 08:58:41;;;;;;;1.45;1.38;;;20.10;99.90;;;;;;5068365;28;20055;-83
2023/10/11 09:01:09;;;;;;;6.82;2.00;;;20.10;99.90;;;;;;5088451;28;20579;-80
2023/10/11 09:03:41;;;;;;;1.58;1.50;;;20.20;99.90;;;;;;5088111;28;20040;-81
2023/10/11 09:06:27;;;;;;;1.00;1.00;;;20.50;99.90;;;;;;5088127;28;20030;-80
2023/10/11 09:08:52;;;;;;;1.63;1.52;;;20.50;99.90;;;;;;5087276;28;20406;-80
2023/10/11 09:11:33;;;;;;;1.35;1.35;;;20.60;99.90;;;;;;5083512;28;20161;-80
2023/10/11 09:14:27;;;;;;;3.33;2.03;;;20.70;99.90;;;;;;5074877;28;20558;-81
2023/10/11 09:17:02;;;;;;;1.08;1.08;;;20.90;99.90;;;;;;5090317;28;20024;-81
2023/10/11 09:19:32;;;;;;;1.58;1.52;;;21.20;99.90;;;;;;5105952;28;20042;-81
2023/10/11 09:22:03;;;;;;;1.65;1.55;;;21.30;99.90;;;;;;5099639;28;20024;-80
2023/10/11 09:24:37;;;;;;;1.83;1.73;;;21.20;99.90;;;;;;5086914;28;20421;-80
2023/10/11 09:27:18;;;;;;;2.35;1.42;;;21.00;99.90;;;;;;5058947;28;20030;-80
2023/10/11 09:29:48;;;;;;;1.35;1.25;;;21.10;99.90;;;;;;5089974;28;20028;-80
2023/10/11 09:32:19;;;;;;;1.65;1.58;;;21.10;99.90;;;;;;5073261;28;20126;-80
2023/10/11 09:34:46;;;;;;;2.08;1.98;;;21.20;99.90;;;;;;5083156;28;20434;-82
2023/10/11 09:37:12;;;;;;;1.20;1.20;;;21.40;99.90;;;;;;5069292;28;20027;-81
2023/10/11 09:39:45;;;;;;;1.58;1.48;;;21.70;99.90;;;;;;5084101;28;20372;-81
2023/10/11 09:42:21;;;;;;;1.95;1.85;;;21.80;99.90;;;;;;5083153;28;20042;-80
2023/10/11 09:44:47;;;;;;;1.13;1.13;;;21.50;99.90;;;;;;5088454;28;20040;-78
2023/10/11 09:47:16;;;;;;;1.42;1.35;;;21.40;99.90;;;;;;5214759;22;20487;-82
2023/10/11 09:49:43;;;;;;;2.13;2.03;;;21.30;99.90;;;;;;5065695;28;20020;-81
2023/10/11 09:52:16;;;;;;;1.27;1.27;;;21.20;99.90;;;;;;5057803;28;20017;-81
2023/10/11 09:54:42;;;;;;;1.65;1.65;;;21.10;99.90;;;;;;5092379;28;20078;-80
2023/10/11 09:57:37;;;;;;;1.75;1.65;;;21.20;99.90;;;;;;5067287;28;20031;-81
2023/10/11 10:00:27;;;;;;;2.05;1.75;;;21.20;99.90;;;;;;5065921;28;20051;-82
2023/10/11 10:02:54;;;;;;;1.27;1.20;;;21.30;99.90;;;;;;5089456;28;20046;-81
2023/10/11 10:05:23;;;;;;;1.58;1.48;;;21.40;99.90;;;;;;5067556;28;20394;-81
2023/10/11 10:07:51;;;;;;;2.28;2.08;;;21.70;99.90;;;;;;5090158;28;20032;-82
2023/10/11 10:10:25;;;;;;;1.65;1.55;;;21.70;99.90;;;;;;5070397;28;20913;-81
2023/10/11 10:12:58;;;;;;;3.22;2.95;;;21.90;99.90;;;;;;5071372;28;20023;-83
2023/10/11 10:15:32;;;;;;;13.00;6.25;;;22.10;99.90;;;;;;5069063;28;20056;-81
2023/10/11 10:18:00;;;;;;;1.35;1.25;;;22.30;99.90;;;;;;5092654;28;20483;-81
2023/10/11 10:20:41;;;;;;;2.63;2.08;;;22.40;99.90;;;;;;5071815;28;20020;-81
2023/10/11 10:23:15;;;;;;;3.70;2.15;;;22.50;99.90;;;;;;5089877;28;20574;-82
2023/10/11 10:25:46;;;;;;;2.00;1.83;;;22.70;99.90;;;;;;5089529;28;20628;-81
2023/10/11 10:28:52;;;;;;;5.22;2.10;;;22.70;99.90;;;;;;5088179;28;20479;-83
2023/10/11 10:31:22;;;;;;;2.45;2.30;;;22.40;99.90;;;;;;4991595;28;20025;-81
2023/10/11 10:34:12;;;;;;;1.90;1.80;;;22.30;99.90;;;;;;5068421;28;20046;-81
2023/10/11 10:36:40;;;;;;;1.20;1.20;;;22.50;99.90;;;;;;5082575;28;20029;-80
2023/10/11 10:39:33;;;;;;;1.92;1.83;;;22.60;99.90;;;;;;5070729;28;20040;-81
2023/10/11 10:42:15;;;;;;;2.42;2.22;;;22.70;99.90;;;;;;5083945;28;20225;-81
2023/10/11 10:44:50;;;;;;;2.88;2.63;;;22.80;99.90;;;;;;5058228;28;20042;-77
2023/10/11 10:47:25;;;;;;;3.40;2.65;;;22.90;99.90;;;;;;5067181;28;20174;-78
2023/10/11 10:49:53;;;;;;;2.38;2.17;;;23.00;99.90;;;;;;5083196;28;20024;-79
2023/10/11 10:52:22;;;;;;;2.33;2.17;;;23.00;99.90;;;;;;5063622;28;20051;-80
2023/10/11 10:55:05;;;;;;;1.67;1.10;;;23.20;99.90;;;;;;5083763;28;20480;-81
2023/10/11 10:57:38;;;;;;;2.45;2.15;;;23.20;99.90;;;;;;5053144;28;20609;-79
2023/10/11 11:00:20;;;;;;;5.13;2.90;;;23.00;99.90;;;;;;5071842;28;20035;-78
2023/10/11 11:02:49;;;;;;;2.72;2.55;;;23.30;99.90;;;;;;5086291;28;20539;-79
2023/10/11 11:05:15;;;;;;;1.75;1.65;;;23.40;99.90;;;;;;5071972;28;20201;-78
2023/10/11 11:07:49;;;;;;;2.38;2.13;;;23.20;99.90;;;;;;5069340;28;20900;-79
2023/10/11 11:10:20;;;;;;;2.38;2.25;;;23.40;99.90;;;;;;5084026;28;20020;-78
2023/10/11 11:12:52;;;;;;;2.65;2.00;;;23.60;99.90;;;;;;5073043;28;20012;-78
2023/10/11 11:15:20;;;;;;;2.33;2.15;;;23.60;99.90;;;;;;5086124;28;20299;-78
2023/10/11 11:17:51;;;;;;;1.50;1.40;;;23.60;99.90;;;;;;5073869;28;20055;-79
2023/10/11 11:22:46;;;;;;;2.15;2.05;;;23.60;99.90;;;;;;5085310;28;20028;-78
2023/10/11 11:25:26;;;;;;;1.27;1.25;;;23.60;99.90;;;;;;5080128;28;20046;-79
2023/10/11 11:30:43;;;;;;;2.60;2.40;;;23.80;99.90;;;;;;5092424;28;20091;-78
2023/10/11 11:33:33;;;;;;;3.30;2.08;;;23.70;99.90;;;;;;5063894;28;20031;-78
2023/10/11 11:35:59;;;;;;;4.05;2.28;;;23.70;99.90;;;;;;5086932;28;20123;-79
2023/10/11 11:38:29;;;;;;;2.15;1.98;;;23.70;99.90;;;;;;5068993;28;20114;-78
2023/10/11 11:41:03;;;;;;;2.58;2.33;;;23.40;99.90;;;;;;5089663;28;20109;-79
2023/10/11 11:43:33;;;;;;;2.38;1.92;;;23.50;99.90;;;;;;5087542;28;20621;-79
2023/10/11 11:46:01;;;;;;;2.63;2.42;;;23.40;99.90;;;;;;5073528;28;20148;-79
2023/10/11 11:48:28;;;;;;;3.58;2.95;;;23.60;99.90;;;;;;5088621;28;20048;-78
2023/10/11 11:50:57;;;;;;;3.25;2.95;;;23.60;99.90;;;;;;5088633;28;20367;-78
2023/10/11 11:53:22;;;;;;;1.90;1.80;;;23.70;99.90;;;;;;5086973;28;20028;-79
2023/10/11 11:55:49;;;;;;;2.13;2.03;;;23.60;99.90;;;;;;5068839;28;20054;-78
2023/10/11 11:58:17;;;;;;;2.78;2.58;;;23.80;99.90;;;;;;5091467;28;20078;-79
2023/10/11 12:00:59;;;;;;;2.50;2.30;;;23.80;99.90;;;;;;5069042;28;20027;-79
2023/10/11 12:03:25;;;;;;;2.30;2.20;;;23.80;99.90;;;;;;5068626;28;20032;-79
2023/10/11 12:05:52;;;;;;;4.57;2.88;;;23.70;99.90;;;;;;5086242;28;20023;-79
2023/10/11 12:08:20;;;;;;;5.20;2.38;;;23.70;99.90;;;;;;5084568;28;20023;-78
2023/10/11 12:10:49;;;;;;;2.90;2.70;;;23.80;99.90;;;;;;5089507;28;20043;-78
2023/10/11 12:13:23;;;;;;;2.70;2.45;;;23.80;99.90;;;;;;5086261;28;20018;-81
2023/10/11 12:15:54;;;;;;;3.42;3.22;;;23.90;99.90;;;;;;5082107;28;20028;-79
2023/10/11 12:18:21;;;;;;;2.35;2.15;;;24.00;99.90;;;;;;5086059;28;20039;-78
2023/10/11 12:20:47;;;;;;;3.42;2.90;;;23.80;99.90;;;;;;5077919;28;20020;-78
2023/10/11 12:23:13;;;;;;;2.15;1.95;;;23.50;99.90;;;;;;5081436;28;20513;-79
2023/10/11 12:25:39;;;;;;;2.83;2.30;;;23.60;99.90;;;;;;5087116;28;20028;-78
2023/10/11 12:28:06;;;;;;;2.50;2.30;;;23.50;99.90;;;;;;5066643;28;20563;-78
2023/10/11 12:30:33;;;;;;;2.53;2.33;;;23.70;99.90;;;;;;5091058;28;20379;-78
2023/10/11 12:33:06;;;;;;;3.65;2.72;;;23.80;99.90;;;;;;5067913;28;20036;-78
2023/10/11 12:35:41;;;;;;;;;;;24.00;99.90;;;;;;5090292;28;20016;-78
2023/10/11 12:38:12;;;;;;;2.88;2.20;;;23.70;99.90;;;;;;5082691;28;20515;-78
2023/10/11 12:40:41;;;;;;;2.40;2.22;;;23.60;99.90;;;;;;5064517;28;20016;-78
2023/10/11 12:43:09;;;;;;;2.85;2.65;;;23.60;99.90;;;;;;5080620;28;20028;-78
2023/10/11 12:45:36;;;;;;;5.95;3.20;;;23.80;99.90;;;;;;5052589;28;20116;-77
2023/10/11 12:48:06;;;;;;;4.07;2.88;;;23.60;99.90;;;;;;5083630;28;20035;-80
2023/10/11 12:50:36;;;;;;;1.70;1.60;;;23.50;99.90;;;;;;5081822;28;20025;-81
2023/10/11 12:53:12;;;;;;;2.83;2.65;;;23.50;99.90;;;;;;5069151;28;20028;-81
2023/10/11 12:55:43;;;;;;;2.60;2.40;;;23.50;99.90;;;;;;5085948;28;20024;-80
2023/10/11 12:58:13;;;;;;;2.00;1.90;;;23.50;99.90;;;;;;5067956;28;20531;-81
2023/10/11 13:00:51;;;;;;;3.00;2.45;;;23.40;99.90;;;;;;5085936;28;20020;-81
2023/10/11 13:03:20;;;;;;;2.20;2.03;;;23.40;99.90;;;;;;5064855;28;20027;-81
2023/10/11 13:05:46;;;;;;;1.92;1.83;;;23.50;99.90;;;;;;5081515;28;20106;-81
2023/10/11 13:08:15;;;;;;;2.22;2.03;;;23.40;99.90;;;;;;5086464;28;20061;-82
2023/10/11 13:10:45;;;;;;;3.60;2.75;;;23.20;99.90;;;;;;5088665;28;20024;-81
2023/10/11 13:13:21;;;;;;;4.03;2.10;;;23.30;99.90;;;;;;5066289;28;20503;-81
2023/10/11 13:15:58;;;;;;;3.03;2.33;;;23.60;99.90;;;;;;5073070;28;20024;-80
2023/10/11 13:18:26;;;;;;;3.85;2.42;;;23.80;99.90;;;;;;5064370;28;20077;-82
2023/10/11 13:20:56;;;;;;;2.08;1.98;;;24.00;99.90;;;;;;5086891;28;21924;-81
2023/10/11 13:23:31;;;;;;;2.55;2.42;;;24.00;99.90;;;;;;5064200;28;20440;-81
2023/10/11 13:25:56;;;;;;;2.67;1.95;;;24.00;99.90;;;;;;5086467;28;20124;-81
2023/10/11 13:28:26;;;;;;;1.73;1.63;;;24.10;99.90;;;;;;5086464;28;20874;-82
2023/10/11 13:30:55;;;;;;;2.15;2.05;;;24.20;99.90;;;;;;5064074;28;20028;-81
2023/10/11 13:33:20;;;;;;;3.92;2.70;;;24.30;99.90;;;;;;5084371;28;20434;-81
2023/10/11 13:35:47;;;;;;;4.82;1.98;;;24.30;99.90;;;;;;5064662;28;20131;-82
2023/10/11 13:38:17;;;;;;;2.53;2.42;;;24.40;99.90;;;;;;5065923;28;20032;-82
2023/10/11 13:40:50;;;;;;;2.58;2.38;;;24.60;99.90;;;;;;5070765;28;20028;-81
2023/10/11 13:43:17;;;;;;;2.42;2.28;;;24.60;99.90;;;;;;5082964;28;20020;-79
2023/10/11 13:45:47;;;;;;;2.83;2.63;;;24.70;99.90;;;;;;5100775;28;20104;-84
2023/10/11 13:48:14;;;;;;;2.63;2.17;;;25.00;99.90;;;;;;5086567;28;20028;-82
2023/10/11 13:50:41;;;;;;;2.15;2.05;;;25.00;99.90;;;;;;5057673;28;20119;-83
2023/10/11 13:53:13;;;;;;;2.10;2.00;;;25.20;99.90;;;;;;5074260;28;20024;-79
2023/10/11 13:55:42;;;;;;;4.25;3.03;;;25.10;99.90;;;;;;5060025;28;20127;-79
2023/10/11 13:58:10;;;;;;;2.42;2.22;;;25.30;99.90;;;;;;5085573;28;20134;-78
2023/10/11 14:05:46;;;;;;;2.65;2.35;;;24.90;99.90;;;;;;5083707;28;20447;-78
2023/10/11 14:08:25;;;;;;;3.40;2.60;;;25.00;99.90;;;;;;5065040;28;20439;-82
2023/10/11 14:10:51;;;;;;;4.10;2.40;;;25.20;99.90;;;;;;5200078;22;20052;-78
2023/10/11 14:13:24;;;;;;;2.70;2.50;;;25.20;99.60;;;;;;5055684;28;20051;-78